ICE2461 BIAR-BIKF
Flight info
| Callsign | ICE2461 |
|---|---|
| Flight time | 0h 43m |
| Altitude | 22000 |
| Route | DEVUD DEVUD3K |
| Aircraft | DH8D/M-SDE2E3FGRY/H |
Departure
| Time | 2026-04-28 12:56 |
|---|---|
| Airport | Akureyri International Airport (BIAR) |
Arrival
| Time | 2026-04-28 13:40 |
|---|---|
| Airport | Keflavik International Airport (BIKF) |
| Time | Latitude | Longitude | Altitude | Speed | Heading |
|---|---|---|---|---|---|
| 2026-04-28 12:38 | 65.65446 | -18.07499 | 28 ft | 0 kts | 356° |
| 2026-04-28 12:51 | 65.65459 | -18.07493 | 33 ft | 5 kts | 32° |
| 2026-04-28 12:52 | 65.65476 | -18.07333 | 29 ft | 12 kts | 87° |
| 2026-04-28 12:52 | 65.65516 | -18.07182 | 22 ft | 14 kts | 4° |
| 2026-04-28 12:52 | 65.65626 | -18.07194 | 20 ft | 16 kts | 356° |
| 2026-04-28 12:52 | 65.65751 | -18.07215 | 18 ft | 18 kts | 355° |
| 2026-04-28 12:53 | 65.65894 | -18.07244 | 16 ft | 20 kts | 356° |
| 2026-04-28 12:53 | 65.66042 | -18.07271 | 14 ft | 21 kts | 355° |
| 2026-04-28 12:53 | 65.66200 | -18.07302 | 12 ft | 22 kts | 356° |
| 2026-04-28 12:53 | 65.66363 | -18.07331 | 12 ft | 22 kts | 355° |
| 2026-04-28 12:54 | 65.66515 | -18.07364 | 12 ft | 21 kts | 355° |
| 2026-04-28 12:54 | 65.66665 | -18.07392 | 12 ft | 21 kts | 356° |
| 2026-04-28 12:54 | 65.66800 | -18.07400 | 12 ft | 11 kts | 18° |
| 2026-04-28 12:54 | 65.66849 | -18.07379 | 12 ft | 7 kts | 327° |
| 2026-04-28 12:55 | 65.66840 | -18.07419 | 12 ft | 0 kts | 175° |
| 2026-04-28 12:55 | 65.66804 | -18.07417 | 12 ft | 29 kts | 178° |
| 2026-04-28 12:56 | 65.66279 | -18.07311 | 13 ft | 114 kts | 177° |
| 2026-04-28 12:56 | 65.65327 | -18.07186 | 231 ft | 143 kts | 178° |
| 2026-04-28 12:56 | 65.64298 | -18.07080 | 845 ft | 151 kts | 179° |
| 2026-04-28 12:56 | 65.63211 | -18.07077 | 1615 ft | 152 kts | 183° |
| 2026-04-28 12:57 | 65.62114 | -18.07040 | 2219 ft | 164 kts | 176° |
| 2026-04-28 12:57 | 65.60923 | -18.06897 | 2877 ft | 166 kts | 184° |
| 2026-04-28 12:57 | 65.59776 | -18.07333 | 3474 ft | 170 kts | 196° |
| 2026-04-28 12:57 | 65.58664 | -18.08227 | 4197 ft | 167 kts | 199° |
| 2026-04-28 12:58 | 65.57591 | -18.09090 | 4951 ft | 166 kts | 198° |
| 2026-04-28 12:58 | 65.56393 | -18.10050 | 5235 ft | 189 kts | 200° |
| 2026-04-28 12:58 | 65.55124 | -18.11072 | 5944 ft | 188 kts | 200° |
| 2026-04-28 12:58 | 65.53872 | -18.12095 | 6611 ft | 189 kts | 200° |
| 2026-04-28 12:59 | 65.52628 | -18.13104 | 7322 ft | 187 kts | 201° |
| 2026-04-28 12:59 | 65.51402 | -18.14108 | 8053 ft | 188 kts | 201° |
| 2026-04-28 12:59 | 65.50166 | -18.15132 | 8763 ft | 187 kts | 200° |
| 2026-04-28 12:59 | 65.48934 | -18.16147 | 9560 ft | 183 kts | 201° |
| 2026-04-28 13:00 | 65.47799 | -18.17574 | 10224 ft | 182 kts | 215° |
| 2026-04-28 13:00 | 65.46780 | -18.19461 | 10843 ft | 185 kts | 217° |
| 2026-04-28 13:00 | 65.45713 | -18.21451 | 11383 ft | 191 kts | 217° |
| 2026-04-28 13:00 | 65.44659 | -18.23416 | 11922 ft | 193 kts | 216° |
| 2026-04-28 13:01 | 65.43586 | -18.25410 | 12573 ft | 190 kts | 215° |
| 2026-04-28 13:01 | 65.42519 | -18.27386 | 12956 ft | 197 kts | 216° |
| 2026-04-28 13:01 | 65.41431 | -18.29399 | 13500 ft | 197 kts | 215° |
| 2026-04-28 13:01 | 65.40327 | -18.31435 | 14114 ft | 193 kts | 216° |
| 2026-04-28 13:02 | 65.39256 | -18.33405 | 14575 ft | 197 kts | 216° |
| 2026-04-28 13:02 | 65.38159 | -18.35423 | 15063 ft | 198 kts | 215° |
| 2026-04-28 13:02 | 65.37045 | -18.37467 | 15484 ft | 202 kts | 217° |
| 2026-04-28 13:02 | 65.35918 | -18.39531 | 16049 ft | 198 kts | 215° |
| 2026-04-28 13:03 | 65.34792 | -18.41589 | 16471 ft | 199 kts | 216° |
| 2026-04-28 13:03 | 65.33678 | -18.43630 | 16852 ft | 203 kts | 216° |
| 2026-04-28 13:03 | 65.32524 | -18.45737 | 17286 ft | 202 kts | 214° |
| 2026-04-28 13:03 | 65.31381 | -18.47821 | 17706 ft | 204 kts | 216° |
| 2026-04-28 13:04 | 65.30233 | -18.49912 | 18056 ft | 205 kts | 215° |
| 2026-04-28 13:04 | 65.29088 | -18.51998 | 18525 ft | 203 kts | 214° |
| 2026-04-28 13:04 | 65.27930 | -18.54106 | 18842 ft | 204 kts | 216° |
| 2026-04-28 13:04 | 65.26766 | -18.56215 | 19175 ft | 206 kts | 216° |
| 2026-04-28 13:05 | 65.25612 | -18.58312 | 19588 ft | 203 kts | 214° |
| 2026-04-28 13:05 | 65.24482 | -18.60357 | 19969 ft | 200 kts | 216° |
| 2026-04-28 13:05 | 65.23345 | -18.62413 | 20104 ft | 206 kts | 216° |
| 2026-04-28 13:05 | 65.22206 | -18.64473 | 20500 ft | 202 kts | 216° |
| 2026-04-28 13:06 | 65.21069 | -18.66527 | 20757 ft | 201 kts | 216° |
| 2026-04-28 13:06 | 65.19935 | -18.68572 | 20936 ft | 204 kts | 213° |
| 2026-04-28 13:06 | 65.18784 | -18.70693 | 21088 ft | 208 kts | 217° |
| 2026-04-28 13:06 | 65.17687 | -18.72893 | 21553 ft | 200 kts | 218° |
| 2026-04-28 13:07 | 65.16602 | -18.75077 | 21724 ft | 203 kts | 216° |
| 2026-04-28 13:07 | 65.15485 | -18.77315 | 21773 ft | 210 kts | 218° |
| 2026-04-28 13:07 | 65.14333 | -18.79615 | 21791 ft | 217 kts | 218° |
| 2026-04-28 13:07 | 65.13139 | -18.81991 | 21787 ft | 224 kts | 217° |
| 2026-04-28 13:08 | 65.11883 | -18.84486 | 21799 ft | 230 kts | 217° |
| 2026-04-28 13:08 | 65.10628 | -18.86976 | 21800 ft | 236 kts | 216° |
| 2026-04-28 13:08 | 65.09329 | -18.89546 | 21806 ft | 239 kts | 217° |
| 2026-04-28 13:08 | 65.08014 | -18.92146 | 21803 ft | 243 kts | 218° |
| 2026-04-28 13:09 | 65.06659 | -18.94821 | 21801 ft | 246 kts | 218° |
| 2026-04-28 13:09 | 65.05300 | -18.97498 | 21787 ft | 249 kts | 218° |
| 2026-04-28 13:09 | 65.03915 | -19.00226 | 21786 ft | 250 kts | 217° |
| 2026-04-28 13:09 | 65.02536 | -19.02936 | 21796 ft | 251 kts | 217° |
| 2026-04-28 13:10 | 65.01136 | -19.05683 | 21781 ft | 252 kts | 216° |
| 2026-04-28 13:10 | 64.99725 | -19.08446 | 21794 ft | 253 kts | 218° |
| 2026-04-28 13:10 | 64.98320 | -19.11194 | 21798 ft | 254 kts | 218° |
| 2026-04-28 13:10 | 64.96921 | -19.13928 | 21799 ft | 253 kts | 217° |
| 2026-04-28 13:11 | 64.95528 | -19.16646 | 21786 ft | 254 kts | 217° |
| 2026-04-28 13:11 | 64.94123 | -19.19382 | 21790 ft | 254 kts | 216° |
| 2026-04-28 13:11 | 64.92728 | -19.22096 | 21796 ft | 253 kts | 217° |
| 2026-04-28 13:11 | 64.91315 | -19.24842 | 21800 ft | 253 kts | 216° |
| 2026-04-28 13:12 | 64.89963 | -19.27461 | 21807 ft | 253 kts | 217° |
| 2026-04-28 13:12 | 64.88557 | -19.30186 | 21798 ft | 255 kts | 217° |
| 2026-04-28 13:12 | 64.87155 | -19.32896 | 21806 ft | 256 kts | 216° |
| 2026-04-28 13:12 | 64.85748 | -19.35612 | 21796 ft | 257 kts | 217° |
| 2026-04-28 13:13 | 64.84311 | -19.38385 | 21804 ft | 257 kts | 217° |
| 2026-04-28 13:13 | 64.82902 | -19.41100 | 21807 ft | 257 kts | 216° |
| 2026-04-28 13:13 | 64.81493 | -19.43808 | 21804 ft | 258 kts | 217° |
| 2026-04-28 13:13 | 64.80055 | -19.46569 | 21810 ft | 258 kts | 216° |
| 2026-04-28 13:14 | 64.78635 | -19.49292 | 21800 ft | 258 kts | 217° |
| 2026-04-28 13:14 | 64.77219 | -19.52004 | 21797 ft | 258 kts | 216° |
| 2026-04-28 13:14 | 64.75803 | -19.54709 | 21814 ft | 258 kts | 217° |
| 2026-04-28 13:14 | 64.74400 | -19.57389 | 21793 ft | 259 kts | 218° |
| 2026-04-28 13:15 | 64.72962 | -19.60134 | 21792 ft | 259 kts | 216° |
| 2026-04-28 13:15 | 64.71538 | -19.62843 | 21787 ft | 259 kts | 218° |
| 2026-04-28 13:15 | 64.70140 | -19.65504 | 21781 ft | 260 kts | 217° |
| 2026-04-28 13:15 | 64.68724 | -19.68193 | 21770 ft | 260 kts | 215° |
| 2026-04-28 13:16 | 64.67307 | -19.70880 | 21780 ft | 260 kts | 217° |
| 2026-04-28 13:16 | 64.65866 | -19.73610 | 21787 ft | 259 kts | 216° |
| 2026-04-28 13:16 | 64.64449 | -19.76288 | 21789 ft | 259 kts | 217° |
| 2026-04-28 13:16 | 64.63023 | -19.78985 | 21783 ft | 259 kts | 217° |
| 2026-04-28 13:17 | 64.61619 | -19.81634 | 21788 ft | 259 kts | 216° |
| 2026-04-28 13:17 | 64.60165 | -19.84371 | 21782 ft | 259 kts | 215° |
| 2026-04-28 13:17 | 64.58750 | -19.87032 | 21787 ft | 258 kts | 216° |
| 2026-04-28 13:17 | 64.57313 | -19.89730 | 21797 ft | 258 kts | 215° |
| 2026-04-28 13:18 | 64.55885 | -19.92409 | 21800 ft | 258 kts | 216° |
| 2026-04-28 13:18 | 64.54449 | -19.95098 | 21800 ft | 258 kts | 216° |
| 2026-04-28 13:18 | 64.53047 | -19.97720 | 21799 ft | 258 kts | 216° |
| 2026-04-28 13:18 | 64.51631 | -20.00366 | 21807 ft | 258 kts | 215° |
| 2026-04-28 13:19 | 64.50201 | -20.03032 | 21812 ft | 257 kts | 215° |
| 2026-04-28 13:19 | 64.48793 | -20.05655 | 21821 ft | 257 kts | 216° |
| 2026-04-28 13:19 | 64.47363 | -20.08312 | 21823 ft | 257 kts | 216° |
| 2026-04-28 13:19 | 64.45942 | -20.10952 | 21825 ft | 257 kts | 215° |
| 2026-04-28 13:20 | 64.44518 | -20.13595 | 21816 ft | 257 kts | 215° |
| 2026-04-28 13:20 | 64.43110 | -20.16202 | 21818 ft | 258 kts | 215° |
| 2026-04-28 13:20 | 64.41662 | -20.18881 | 21732 ft | 260 kts | 216° |
| 2026-04-28 13:20 | 64.40250 | -20.21485 | 21515 ft | 256 kts | 216° |
| 2026-04-28 13:21 | 64.38833 | -20.24098 | 21252 ft | 253 kts | 215° |
| 2026-04-28 13:21 | 64.37440 | -20.26658 | 20968 ft | 251 kts | 216° |
| 2026-04-28 13:21 | 64.36070 | -20.29175 | 20680 ft | 250 kts | 215° |
| 2026-04-28 13:21 | 64.34665 | -20.31753 | 20392 ft | 255 kts | 216° |
| 2026-04-28 13:22 | 64.33237 | -20.34371 | 20095 ft | 260 kts | 216° |
| 2026-04-28 13:22 | 64.31773 | -20.37058 | 19776 ft | 265 kts | 215° |
| 2026-04-28 13:22 | 64.30306 | -20.39741 | 19457 ft | 269 kts | 216° |
| 2026-04-28 13:22 | 64.28837 | -20.42565 | 19072 ft | 275 kts | 221° |
| 2026-04-28 13:23 | 64.27904 | -20.46612 | 18774 ft | 297 kts | 246° |
| 2026-04-28 13:23 | 64.27583 | -20.51494 | 18424 ft | 307 kts | 252° |
| 2026-04-28 13:23 | 64.27338 | -20.56425 | 18053 ft | 310 kts | 252° |
| 2026-04-28 13:23 | 64.27090 | -20.61461 | 17676 ft | 313 kts | 252° |
| 2026-04-28 13:24 | 64.26838 | -20.66484 | 17297 ft | 315 kts | 252° |
| 2026-04-28 13:24 | 64.26583 | -20.71541 | 16895 ft | 305 kts | 252° |
| 2026-04-28 13:24 | 64.26333 | -20.76382 | 16530 ft | 300 kts | 252° |
| 2026-04-28 13:24 | 64.26080 | -20.81147 | 16168 ft | 299 kts | 252° |
| 2026-04-28 13:25 | 64.25818 | -20.85987 | 15813 ft | 299 kts | 252° |
| 2026-04-28 13:25 | 64.25553 | -20.90825 | 15460 ft | 298 kts | 252° |
| 2026-04-28 13:25 | 64.25290 | -20.95599 | 15108 ft | 297 kts | 252° |
| 2026-04-28 13:25 | 64.25030 | -21.00274 | 14762 ft | 297 kts | 252° |
| 2026-04-28 13:26 | 64.24766 | -21.04982 | 14424 ft | 296 kts | 253° |
| 2026-04-28 13:26 | 64.24500 | -21.09699 | 14086 ft | 295 kts | 253° |
| 2026-04-28 13:26 | 64.24236 | -21.14353 | 13736 ft | 295 kts | 253° |
| 2026-04-28 13:26 | 64.23963 | -21.19089 | 13378 ft | 295 kts | 253° |
| 2026-04-28 13:27 | 64.23689 | -21.23844 | 13027 ft | 294 kts | 254° |
| 2026-04-28 13:27 | 64.23418 | -21.28520 | 12668 ft | 294 kts | 253° |
| 2026-04-28 13:27 | 64.23146 | -21.33197 | 12322 ft | 293 kts | 254° |
| 2026-04-28 13:27 | 64.22872 | -21.37880 | 11969 ft | 293 kts | 254° |
| 2026-04-28 13:28 | 64.22597 | -21.42562 | 11607 ft | 292 kts | 254° |
| 2026-04-28 13:28 | 64.22319 | -21.47249 | 11268 ft | 291 kts | 254° |
| 2026-04-28 13:28 | 64.22041 | -21.51920 | 10903 ft | 287 kts | 255° |
| 2026-04-28 13:28 | 64.21777 | -21.56362 | 10567 ft | 268 kts | 253° |
| 2026-04-28 13:29 | 64.21536 | -21.60440 | 10250 ft | 251 kts | 253° |
| 2026-04-28 13:29 | 64.21299 | -21.64368 | 9977 ft | 241 kts | 253° |
| 2026-04-28 13:29 | 64.21066 | -21.68165 | 9698 ft | 239 kts | 252° |
| 2026-04-28 13:29 | 64.20833 | -21.71918 | 9422 ft | 238 kts | 252° |
| 2026-04-28 13:30 | 64.20597 | -21.75693 | 9149 ft | 237 kts | 252° |
| 2026-04-28 13:30 | 64.20364 | -21.79438 | 8879 ft | 237 kts | 252° |
| 2026-04-28 13:30 | 64.20129 | -21.83207 | 8603 ft | 236 kts | 253° |
| 2026-04-28 13:30 | 64.19892 | -21.86993 | 8393 ft | 233 kts | 252° |
| 2026-04-28 13:31 | 64.19419 | -21.94531 | 7908 ft | 232 kts | 253° |
| 2026-04-28 13:31 | 64.19187 | -21.98188 | 7652 ft | 232 kts | 253° |
| 2026-04-28 13:31 | 64.18954 | -22.01856 | 7383 ft | 232 kts | 253° |
| 2026-04-28 13:32 | 64.18714 | -22.05611 | 7106 ft | 233 kts | 253° |
| 2026-04-28 13:32 | 64.18474 | -22.09381 | 6823 ft | 233 kts | 253° |
| 2026-04-28 13:32 | 64.18233 | -22.13120 | 6538 ft | 234 kts | 253° |
| 2026-04-28 13:32 | 64.17994 | -22.16848 | 6262 ft | 235 kts | 253° |
| 2026-04-28 13:33 | 64.17752 | -22.20592 | 5983 ft | 235 kts | 253° |
| 2026-04-28 13:33 | 64.17513 | -22.24259 | 5712 ft | 235 kts | 254° |
| 2026-04-28 13:33 | 64.17264 | -22.28091 | 5421 ft | 236 kts | 254° |
| 2026-04-28 13:33 | 64.17007 | -22.32014 | 5125 ft | 236 kts | 254° |
| 2026-04-28 13:34 | 64.16756 | -22.35833 | 4835 ft | 236 kts | 255° |
| 2026-04-28 13:34 | 64.16502 | -22.39672 | 4554 ft | 236 kts | 255° |
| 2026-04-28 13:34 | 64.16200 | -22.43372 | 4266 ft | 226 kts | 248° |
| 2026-04-28 13:34 | 64.15685 | -22.46833 | 3997 ft | 218 kts | 244° |
| 2026-04-28 13:35 | 64.15166 | -22.50089 | 3741 ft | 213 kts | 243° |
| 2026-04-28 13:35 | 64.14646 | -22.53329 | 3486 ft | 208 kts | 243° |
| 2026-04-28 13:35 | 64.14137 | -22.56503 | 3233 ft | 201 kts | 243° |
| 2026-04-28 13:35 | 64.13467 | -22.59228 | 2889 ft | 180 kts | 217° |
| 2026-04-28 13:36 | 64.12324 | -22.60061 | 2677 ft | 160 kts | 187° |
| 2026-04-28 13:36 | 64.11248 | -22.60166 | 2438 ft | 146 kts | 182° |
| 2026-04-28 13:36 | 64.10246 | -22.60050 | 2125 ft | 132 kts | 187° |
| 2026-04-28 13:36 | 64.09315 | -22.60355 | 1970 ft | 136 kts | 191° |
| 2026-04-28 13:37 | 64.08321 | -22.60527 | 1872 ft | 139 kts | 184° |
| 2026-04-28 13:37 | 64.07343 | -22.60543 | 1818 ft | 135 kts | 184° |
| 2026-04-28 13:37 | 64.06417 | -22.60554 | 1679 ft | 131 kts | 184° |
| 2026-04-28 13:37 | 64.05476 | -22.60571 | 1478 ft | 134 kts | 184° |
| 2026-04-28 13:38 | 64.04568 | -22.60569 | 1249 ft | 127 kts | 182° |
| 2026-04-28 13:38 | 64.03706 | -22.60560 | 1074 ft | 120 kts | 182° |
| 2026-04-28 13:38 | 64.02885 | -22.60569 | 904 ft | 116 kts | 182° |
| 2026-04-28 13:38 | 64.02097 | -22.60562 | 752 ft | 110 kts | 183° |
| 2026-04-28 13:39 | 64.01341 | -22.60572 | 616 ft | 107 kts | 182° |
| 2026-04-28 13:39 | 64.00568 | -22.60572 | 476 ft | 114 kts | 182° |
| 2026-04-28 13:39 | 63.99741 | -22.60565 | 320 ft | 115 kts | 181° |
| 2026-04-28 13:39 | 63.98919 | -22.60548 | 161 ft | 113 kts | 181° |
| 2026-04-28 13:40 | 63.98239 | -22.60554 | 161 ft | 60 kts | 180° |
| 2026-04-28 13:40 | 63.97956 | -22.60555 | 162 ft | 29 kts | 180° |
| 2026-04-28 13:40 | 63.97784 | -22.60559 | 159 ft | 17 kts | 180° |
| 2026-04-28 13:40 | 63.97671 | -22.60557 | 159 ft | 16 kts | 179° |
| 2026-04-28 13:41 | 63.97521 | -22.60556 | 154 ft | 25 kts | 181° |
| 2026-04-28 13:41 | 63.97439 | -22.60746 | 150 ft | 17 kts | 280° |
| 2026-04-28 13:41 | 63.97492 | -22.60946 | 148 ft | 14 kts | 355° |
| 2026-04-28 13:41 | 63.97606 | -22.60946 | 150 ft | 22 kts | 359° |
| 2026-04-28 13:42 | 63.97772 | -22.60948 | 151 ft | 23 kts | 1° |
| 2026-04-28 13:42 | 63.97938 | -22.60947 | 153 ft | 22 kts | 0° |
| 2026-04-28 13:42 | 63.98092 | -22.60946 | 155 ft | 22 kts | 1° |
| 2026-04-28 13:42 | 63.98249 | -22.60945 | 155 ft | 22 kts | 1° |
| 2026-04-28 13:43 | 63.98414 | -22.60945 | 152 ft | 23 kts | 360° |
| 2026-04-28 13:43 | 63.98581 | -22.60946 | 151 ft | 23 kts | 0° |
| 2026-04-28 13:43 | 63.98749 | -22.60947 | 151 ft | 23 kts | 1° |
| 2026-04-28 13:43 | 63.98917 | -22.60947 | 149 ft | 24 kts | 0° |
| 2026-04-28 13:44 | 63.99083 | -22.60946 | 147 ft | 18 kts | 1° |
| 2026-04-28 13:44 | 63.99171 | -22.61022 | 147 ft | 12 kts | 284° |
| 2026-04-28 13:44 | 63.99173 | -22.61205 | 146 ft | 10 kts | 270° |
| 2026-04-28 13:44 | 63.99171 | -22.61374 | 144 ft | 10 kts | 270° |
| 2026-04-28 13:45 | 63.99172 | -22.61532 | 144 ft | 9 kts | 270° |
| 2026-04-28 13:45 | 63.99173 | -22.61838 | 144 ft | 20 kts | 270° |
| 2026-04-28 13:45 | 63.99210 | -22.61997 | 144 ft | 12 kts | 4° |
| 2026-04-28 13:45 | 63.99287 | -22.61984 | 144 ft | 5 kts | 53° |
| 2026-04-28 13:46 | 63.99290 | -22.61873 | 144 ft | 7 kts | 91° |
| 2026-04-28 13:46 | 63.99290 | -22.61818 | 144 ft | 0 kts | 91° |
| 2026-04-28 13:46 | 63.99290 | -22.61819 | 144 ft | 0 kts | 91° |